Date,TemperatureHighF,TemperatureAvgF,TemperatureLowF,DewpointHighF,DewpointAvgF,DewpointLowF,HumidityHigh,HumidityAvg,HumidityLow,PressureMaxIn,PressureMinIn,WindSpeedMaxMPH,WindSpeedAvgMPH,GustSpeedMaxMPH,PrecipitationSumIn
2013-1-1,62.9,41.5,31.9,37.0,32.0,29.0,91,72,32,30.28,30.19,0,0,0,0.00
2013-1-2,59.9,39.9,29.7,40.1,32.1,26.2,92,75,45,30.24,30.13,0,0,0,0.00
2013-1-3,57.2,40.1,30.6,39.7,33.3,27.5,90,78,50,30.27,30.16,0,0,0,0.00
2013-1-4,60.4,42.3,33.4,41.7,35.5,30.4,91,78,48,30.29,30.18,0,0,0,0.00
2013-1-5,50.7,42.9,33.7,43.9,38.9,30.2,92,86,75,30.25,30.06,0,0,0,0.41
2013-1-6,56.5,45.2,38.3,46.8,41.0,35.3,92,85,64,30.19,30.06,0,0,0,0.01
2013-1-7,62.2,46.6,36.1,50.7,41.4,33.5,91,83,63,30.25,30.15,0,0,0,0.01
2013-1-8,62.8,48.0,39.3,50.1,43.0,36.6,92,83,62,30.23,30.12,0,0,0,0.00
2013-1-9,50.2,44.4,39.8,46.9,40.2,33.7,91,85,75,30.15,29.97,0,0,0,0.02
2013-1-10,53.0,41.0,32.0,36.7,32.0,27.6,90,72,47,30.20,30.06,0,0,0,0.00
2013-1-11,55.5,41.4,33.6,38.3,32.2,28.1,82,70,50,30.25,30.11,0,0,0,0.00
2013-1-12,53.3,39.0,30.1,34.6,29.3,25.3,88,70,41,30.25,30.13,0,0,0,0.00
2013-1-13,53.5,37.2,26.1,35.1,25.8,14.3,88,66,29,30.26,30.18,0,0,0,0.00
2013-1-14,58.1,40.8,28.8,30.5,23.6,13.6,82,53,30,30.40,30.24,0,0,0,0.00
2013-1-15,57.1,39.3,29.7,35.8,30.4,26.0,92,72,41,30.48,30.39,0,0,0,0.00
2013-1-16,62.2,40.5,29.5,39.6,32.1,26.1,92,74,42,30.45,30.27,0,0,0,0.00
2013-1-17,66.4,42.3,30.4,45.1,34.7,27.5,92,76,42,30.27,30.16,0,0,0,0.00
2013-1-18,67.9,43.9,31.6,43.4,35.8,28.7,91,76,39,30.23,30.14,0,0,0,0.00
2013-1-19,67.8,45.2,31.9,43.5,36.1,29.0,95,73,39,30.25,30.16,0,0,0,0.00
2013-1-20,67.4,44.3,32.3,42.2,34.8,28.9,90,72,38,30.23,30.12,0,0,0,0.00
2013-1-21,67.9,45.1,32.1,44.5,35.5,28.1,87,71,38,30.18,30.08,0,0,0,0.00
2013-1-22,66.9,47.0,33.4,45.2,37.1,30.2,90,71,40,30.11,29.98,0,0,0,0.00
2013-1-23,53.0,49.3,47.5,46.7,43.5,38.1,91,81,68,30.09,29.95,0,0,0,0.44
2013-1-24,59.0,51.5,47.8,54.5,48.4,45.3,92,89,80,30.18,30.06,0,0,0,0.01
2013-1-25,60.8,53.6,47.0,53.9,49.5,43.9,95,86,74,30.19,30.04,0,0,0,0.00
2013-1-26,60.8,48.9,39.2,46.9,40.1,33.6,91,73,46,30.06,29.96,0,0,0,0.00
2013-1-27,58.4,43.9,31.8,38.8,34.0,28.4,90,70,43,30.18,30.05,0,0,0,0.00
2013-1-28,59.6,47.5,39.3,40.9,37.2,33.4,83,68,48,30.28,30.16,0,0,0,0.00
2013-1-29,66.6,50.0,38.0,44.1,38.9,33.0,85,67,42,30.35,30.26,0,0,0,0.00
2013-1-30,71.0,52.4,41.4,47.1,41.1,36.6,83,67,39,30.33,30.25,0,0,0,0.00
2013-1-31,70.5,49.2,37.5,49.1,40.9,34.4,91,75,45,30.29,30.18,0,0,0,0.00
2013-2-1,70.8,50.1,38.2,50.9,42.1,35.2,92,76,46,30.21,30.11,0,0,0,0.00
2013-2-2,61.1,46.7,40.2,49.9,41.9,36.9,91,84,64,30.30,30.21,0,0,0,0.00
2013-2-3,64.0,48.7,40.1,48.7,42.9,36.8,92,81,56,30.25,30.14,0,0,0,0.00
2013-2-4,57.5,45.1,37.0,47.9,40.9,34.2,91,85,68,30.17,30.06,0,0,0,0.00
2013-2-5,62.7,49.1,43.6,48.4,42.4,38.3,92,78,56,30.15,30.04,0,0,0,0.00
2013-2-6,62.9,46.4,36.4,44.2,38.2,32.9,89,75,48,30.20,30.09,0,0,0,0.00
2013-2-7,58.9,46.2,36.4,45.8,38.8,32.9,90,77,43,30.15,29.98,0,0,0,0.09
2013-2-8,62.0,44.5,35.0,39.1,34.9,31.8,92,71,36,30.02,29.94,0,0,0,0.01
2013-2-9,63.6,45.4,35.3,36.1,31.1,27.5,78,60,28,30.09,30.00,0,0,0,0.00
2013-2-10,69.5,44.8,32.0,43.9,33.7,27.0,84,67,35,30.11,30.01,0,0,0,0.00
2013-2-11,71.7,49.8,37.7,39.8,33.7,28.7,84,57,27,30.22,30.09,0,0,0,0.00
2013-2-12,66.1,46.1,34.8,44.6,38.0,31.3,92,75,45,30.36,30.22,0,0,0,0.00
2013-2-13,69.1,47.9,35.1,46.9,39.0,32.2,91,74,44,30.34,30.20,0,0,0,0.00
2013-2-14,74.4,51.4,39.0,50.9,41.5,35.7,91,72,39,30.25,30.15,0,0,0,0.00
2013-2-15,75.5,53.3,39.5,48.9,41.7,35.1,89,68,35,30.27,30.20,0,0,0,0.00
2013-2-16,74.3,52.7,41.8,48.0,41.9,37.7,89,70,33,30.24,30.04,0,0,0,0.00
2013-2-17,67.0,49.4,36.7,46.7,39.3,33.5,90,71,41,30.04,29.97,0,0,0,0.00
2013-2-19,50.5,43.0,34.0,41.8,34.0,29.5,90,71,51,29.85,29.73,0,0,0,0.09
2013-2-20,65.4,45.4,32.3,40.2,33.8,27.5,85,66,35,30.06,29.85,0,0,0,0.04
2013-2-21,67.0,49.2,35.5,37.9,34.6,30.1,83,60,30,30.16,30.05,0,0,0,0.00
2013-2-22,66.3,50.7,38.0,44.2,38.3,32.1,82,64,37,30.25,30.16,0,0,0,0.00
2013-2-23,63.2,49.3,40.0,41.1,34.5,31.4,85,59,31,30.26,30.16,0,0,0,0.00
2013-2-24,71.2,49.3,34.4,38.2,32.2,27.8,79,56,23,30.26,30.15,0,0,0,0.00
2013-2-25,75.7,50.1,35.6,42.4,36.0,29.0,86,63,21,30.26,30.15,0,0,0,0.00
2013-2-26,77.5,52.8,37.9,39.6,32.6,25.9,70,50,20,30.21,30.13,0,0,0,0.00
2013-2-27,73.4,52.4,36.1,45.0,37.2,29.8,80,59,29,30.36,30.20,0,0,0,0.00
2013-2-28,72.8,56.7,45.1,54.3,47.4,40.6,88,72,49,30.43,30.35,0,0,0,0.00
2013-3-1,78.1,57.2,44.8,53.6,47.1,41.6,90,72,39,30.42,30.23,0,0,0,0.00
2013-3-2,69.7,57.2,47.7,53.1,48.1,43.0,88,73,53,30.24,30.05,0,0,0,0.00
2013-3-3,68.1,53.5,46.5,50.9,46.0,42.0,88,77,52,30.08,30.01,0,0,0,0.00
2013-3-4,58.5,46.7,37.0,46.7,41.7,33.2,90,83,64,30.14,30.05,0,0,0,0.00
2013-3-5,52.7,45.5,35.3,44.8,39.9,32.1,90,81,69,30.07,29.78,0,0,0,0.24
2013-3-6,56.2,47.5,37.9,46.3,40.5,34.3,90,77,54,30.06,29.79,0,0,0,0.08
2013-3-7,56.4,45.7,36.4,42.1,36.9,33.2,90,73,50,29.99,29.87,0,0,0,0.00
2013-3-8,68.1,50.7,38.4,41.0,37.3,33.2,83,63,34,30.03,29.84,0,0,0,0.00
2013-3-9,74.9,53.3,39.1,46.4,39.2,33.6,85,62,28,30.31,30.03,0,0,0,0.00
2013-3-10,73.4,54.0,40.1,47.2,39.9,34.0,82,62,33,30.33,30.23,0,0,0,0.00
2013-3-11,75.5,53.1,38.2,48.6,41.5,34.7,89,68,34,30.25,30.10,0,0,0,0.00
2013-3-12,76.6,55.3,40.8,55.2,45.5,37.5,90,72,41,30.15,30.07,0,0,0,0.00
2013-3-13,83.2,58.7,42.0,57.5,47.7,38.7,92,70,36,30.16,30.06,0,0,0,0.00
2013-3-14,72.4,56.5,45.4,55.7,47.6,42.0,92,74,49,30.15,30.07,0,0,0,0.00
2013-3-15,76.6,58.0,45.5,54.3,46.0,39.9,85,66,41,30.12,30.02,0,0,0,0.00
2013-3-16,78.6,57.9,42.3,48.6,42.6,38.2,90,62,24,30.11,30.00,0,0,0,0.00
2013-3-17,74.4,55.2,43.6,46.2,40.9,37.5,80,61,27,30.14,30.02,0,0,0,0.00
2013-3-18,68.8,53.1,40.1,46.6,41.4,35.1,85,66,43,30.11,30.01,0,0,0,0.00
2013-3-19,60.1,51.3,42.7,46.7,41.5,36.0,87,70,52,30.13,30.04,0,0,0,0.08
2013-3-20,59.0,51.4,46.1,54.2,47.9,42.1,91,88,78,30.13,30.05,0,0,0,0.51
2013-3-21,70.2,52.4,38.7,47.2,41.2,35.0,90,68,41,30.13,30.00,0,0,0,0.00
2013-3-22,46.5,41.8,40.4,36.3,34.0,32.5,78,74,62,30.10,30.05,0,0,0,0.00
2013-3-23,73.9,54.3,42.3,43.0,37.5,33.6,80,56,29,30.13,30.03,0,0,0,0.00
2013-3-24,73.5,53.6,39.1,48.8,42.0,35.0,87,67,39,30.08,29.96,0,0,0,0.00
2013-3-25,61.3,48.2,39.2,46.3,41.3,35.4,92,78,55,30.02,29.93,0,0,0,0.00
2013-3-26,67.2,51.1,40.0,49.6,42.9,36.7,90,75,48,30.00,29.93,0,0,0,0.00
2013-3-27,60.6,51.5,42.7,51.2,46.0,38.9,88,82,66,30.01,29.93,0,0,0,0.00
2013-3-28,62.9,53.9,46.3,55.0,48.9,42.6,92,83,69,30.08,30.00,0,0,0,0.05
2013-3-29,80.4,58.6,45.3,57.7,49.9,42.5,92,75,38,30.09,30.01,0,0,0,0.01
2013-3-30,66.1,56.0,50.4,56.9,49.8,46.7,89,80,63,30.06,29.99,0,0,0,0.12
2013-3-31,61.2,54.6,49.9,55.8,51.4,47.1,91,89,75,30.06,29.99,0,0,0,0.67
2013-4-1,63.5,54.4,47.0,56.7,49.9,43.6,92,85,67,30.15,30.04,0,0,0,0.01
2013-4-2,68.9,52.7,44.5,55.3,47.1,41.7,92,82,60,30.18,30.09,0,0,0,0.00
2013-4-3,78.3,55.6,46.0,58.2,48.6,43.2,91,79,46,30.13,29.98,0,0,0,0.00
2013-4-4,56.5,52.9,48.5,54.1,50.2,45.3,92,91,86,30.11,29.97,0,0,0,0.99
2013-4-5,61.8,55.3,51.7,53.5,50.7,47.4,92,85,69,30.18,30.10,0,0,0,0.02
2013-4-6,68.6,55.9,50.8,55.3,50.5,47.2,92,83,59,30.18,30.11,0,0,0,0.00
2013-4-7,63.8,54.3,48.4,56.3,48.3,43.8,91,81,60,30.17,29.80,0,0,0,0.06
2013-4-8,71.6,54.9,44.4,44.7,39.0,34.4,88,57,32,30.05,29.79,0,0,0,0.01
2013-4-9,82.7,61.2,45.2,45.8,40.2,32.3,78,52,18,30.12,30.03,0,0,0,0.00
2013-4-10,87.8,68.5,53.6,59.7,48.9,42.1,69,51,31,30.17,30.02,0,0,0,0.00
2013-4-11,79.7,61.8,47.2,51.7,46.2,41.9,83,59,35,30.05,29.82,0,0,0,0.00
2013-4-12,76.4,57.8,44.3,53.8,45.4,39.4,85,65,39,29.90,29.81,0,0,0,0.00
2013-4-13,80.1,58.3,44.3,50.8,43.1,36.9,87,61,35,29.89,29.79,0,0,0,0.00
2013-4-14,74.3,55.9,43.3,46.9,39.1,32.7,81,56,30,29.92,29.83,0,0,0,0.00
2013-4-15,63.4,50.3,41.0,42.6,36.0,32.2,87,61,36,29.96,29.84,0,0,0,0.00
2013-4-16,74.0,53.4,36.1,37.9,34.0,29.0,80,52,20,30.18,29.96,0,0,0,0.00
2013-4-17,77.3,59.9,42.5,38.6,32.6,27.5,67,39,17,30.27,30.16,0,0,0,0.00
2013-4-18,80.4,61.7,45.5,45.1,40.8,34.9,72,49,26,30.25,30.17,0,0,0,0.00
2013-4-19,80.9,62.8,46.7,55.9,47.2,41.3,84,60,35,30.21,30.06,0,0,0,0.00
2013-4-20,83.8,64.6,51.4,52.2,45.5,40.7,72,52,27,30.10,29.96,0,0,0,0.00
2013-4-21,86.7,67.1,49.6,55.4,47.2,43.2,79,53,27,30.02,29.91,0,0,0,0.00
2013-4-22,96.0,71.3,56.5,54.9,48.8,42.5,71,48,16,29.95,29.84,0,0,0,0.00
2013-4-23,86.9,67.2,46.4,51.9,37.0,22.9,85,38,15,29.91,29.83,0,0,0,0.00
2013-4-24,64.2,52.1,45.1,49.8,44.5,41.2,88,76,56,29.96,29.82,0,0,0,0.00
2013-4-25,66.3,53.9,46.4,50.6,45.6,41.8,84,74,56,30.12,29.96,0,0,0,0.00
2013-4-26,70.3,54.2,46.1,53.9,46.8,41.5,90,77,54,30.23,30.11,0,0,0,0.00
2013-4-27,76.8,56.0,46.7,56.8,47.7,42.9,90,76,48,30.22,30.06,0,0,0,0.00
2013-4-28,84.7,63.3,43.5,57.6,49.6,40.2,90,65,37,30.06,29.87,0,0,0,0.00
2013-4-29,92.4,73.3,61.2,58.4,50.6,46.6,59,46,28,29.88,29.75,0,0,0,0.00
2013-4-30,90.5,70.8,54.4,48.1,41.6,22.7,66,40,12,29.86,29.77,0,0,0,0.00
2013-5-1,92.8,73.5,55.7,46.9,32.1,21.5,55,24,12,30.06,29.84,0,0,0,0.00
2013-5-2,94.4,69.2,49.2,48.8,40.4,33.9,68,39,17,30.14,30.06,0,0,0,0.00
2013-5-3,93.0,68.8,49.8,53.3,43.3,35.5,64,43,22,30.06,29.78,0,0,0,0.00
2013-5-4,90.2,66.2,51.2,52.4,46.3,38.7,81,53,23,29.78,29.56,0,0,0,0.00
2013-5-5,64.6,57.6,54.1,50.1,48.1,47.0,80,71,59,29.82,29.61,0,0,0,0.00
2013-5-6,69.6,59.0,50.7,51.8,49.2,46.0,85,71,49,29.97,29.81,0,0,0,0.00
2013-5-7,71.3,60.3,51.6,54.0,50.6,46.9,87,72,49,30.03,29.96,0,0,0,0.00
2013-5-8,63.3,53.8,49.5,52.7,48.4,44.9,90,82,67,30.12,30.02,0,0,0,0.00
2013-5-9,69.1,56.1,47.9,53.3,48.5,43.9,88,77,56,30.16,30.07,0,0,0,0.00
2013-5-10,74.8,58.5,50.3,57.5,50.1,45.8,88,75,53,30.17,30.09,0,0,0,0.00
2013-5-11,86.3,62.5,47.3,61.2,51.3,44.2,90,70,42,30.13,30.04,0,0,0,0.00
2013-5-12,81.0,61.8,45.7,61.1,50.8,42.2,92,70,46,30.13,30.01,0,0,0,0.00
2013-5-13,84.3,64.5,46.7,61.1,51.1,43.2,92,65,43,30.06,29.91,0,0,0,0.00
2013-5-14,85.1,65.9,50.8,55.9,49.5,43.9,83,58,35,29.95,29.86,0,0,0,0.00
2013-5-15,82.2,61.5,45.6,52.6,45.8,40.7,85,60,30,30.01,29.94,0,0,0,0.00
2013-5-16,76.5,61.9,51.1,54.5,48.8,44.4,78,63,44,30.00,29.91,0,0,0,0.00
2013-5-17,74.6,57.7,43.5,49.6,44.5,39.3,87,64,41,30.05,29.95,0,0,0,0.00
2013-5-18,84.8,62.3,43.4,52.1,46.0,39.5,89,59,28,30.11,30.05,0,0,0,0.00
2013-5-19,92.3,68.2,52.5,49.5,45.8,42.1,72,49,20,30.11,29.96,0,0,0,0.00
2013-5-20,92.5,70.0,51.9,51.8,46.1,40.0,77,46,20,29.99,29.88,0,0,0,0.00
2013-5-21,74.7,59.9,48.8,47.5,43.2,34.9,82,56,33,29.98,29.88,0,0,0,0.00
2013-5-22,73.1,56.5,42.2,40.1,34.9,29.7,65,46,25,30.02,29.88,0,0,0,0.00
2013-5-23,73.8,58.5,45.4,45.1,40.4,36.9,73,53,33,29.99,29.89,0,0,0,0.00
2013-5-24,74.7,58.0,42.6,46.4,42.1,36.8,81,58,35,29.98,29.90,0,0,0,0.00
2013-5-25,75.1,59.0,43.7,48.4,43.9,38.3,83,60,35,30.02,29.93,0,0,0,0.00
2013-5-26,76.4,61.3,47.7,54.1,47.9,43.0,87,64,41,30.10,30.01,0,0,0,0.00
2013-5-27,62.0,55.3,47.0,54.8,49.2,42.1,90,80,68,30.09,29.98,0,0,0,0.16
2013-5-28,74.1,61.5,54.8,57.9,53.3,48.6,92,76,54,29.99,29.90,0,0,0,0.03
2013-5-29,78.0,64.6,55.5,56.1,50.6,44.0,82,63,32,29.95,29.86,0,0,0,0.00
2013-5-30,85.8,64.4,46.4,52.3,45.5,41.8,85,55,24,29.97,29.90,0,0,0,0.00
2013-5-31,91.9,70.8,54.2,54.8,48.8,43.8,68,48,24,30.00,29.89,0,0,0,0.00
2013-6-1,97.3,76.2,59.8,59.8,49.6,43.9,58,41,25,29.91,29.75,0,0,0,0.00
2013-6-2,86.0,70.2,57.1,55.9,49.6,45.5,71,50,33,29.76,29.62,0,0,0,0.00
2013-6-3,69.5,58.9,49.6,53.2,49.6,45.0,86,72,55,29.87,29.68,0,0,0,0.00
2013-6-4,64.5,56.7,52.9,52.1,49.5,48.1,84,77,64,29.97,29.85,0,0,0,0.00
2013-6-5,72.9,58.1,51.2,54.8,49.9,47.2,88,75,52,29.99,29.91,0,0,0,0.00
2013-6-6,77.8,58.6,49.8,57.1,50.1,46.6,89,75,49,29.95,29.84,0,0,0,0.00
2013-6-7,92.9,67.7,50.5,62.4,53.7,47.1,89,66,35,29.88,29.70,0,0,0,0.00